Briefing drone pour Vic-sur-cere

Rechercher une autre localisation

Conditions de vol :


Nous sommes le : Lundi 27 septembre 2021
Il est 21:42 UTC (23:42 LT)

Lever de soleil : 05:16 UTC (07:16 LT)
Coucher de soleil : 18:04 UTC (20:04 LT)


Warning: min(): Array must contain at least one element in /homepages/6/d509196549/htdocs/briefdrone/includes/function/metar/metar.php on line 1265

Météo

L'essentiel des conditions de vol

VIGILANCE MÉTÉO FRANCE - Cantal (15)
Pas de vigilances particulieres
METAR de LFLW
LFLW 272130Z AUTO VRB02KT 9999 ////// 11/10 Q1026

Date d'émission: 27/09/2021
Heure d'émission: 21:30 UTC
Vent: Variable 2 KT (4 km/h)
Visibilité horizontale: > 10 km
Température: 11 °C
Point de rosée: 10 °C
Humidité: 94%
Pression (QNH): 1026 hPa
Prévision 24h pour Aurillac (9 km)
Vent : 343° pour 1 KT (3 km/h)
Temperature Maxi: 11 °C
Temperature Min: 11 °C
Humidité : 98%
Condition : Légère pluie



Warning: count(): Parameter must be an array or an object that implements Countable in /homepages/6/d509196549/htdocs/droneoxygene/briefing.php on line 743
WEBCAM POUR VIC-SUR-CERE

Réglementation

Voler en sécurité

CARTES AERONAUTIQUE 1/500.000
CARTES VAC (LFLW)
SUP AIP




Chargement des AIP...
NOTAM (VIC-SUR-CERE + Terrain à proximité / FIR )




Chargement des NOTAMS...
CONTACT PREFECTURE 15


Avertissement : Les données mises à disposition sont indicatives. Oxygène Drone ne pourra être tenu responsable de dégâts causés aux biens et aux personnes.